Time;durP1;ratioP1;P1;durP2;ratioP2;P2;SDS_P1;SDS_P2;PMS_P1;PMS_P2;Temp;Humidity;BMP_temperature;BMP_pressure;BME280_temperature;BME280_humidity;BME280_pressure;Samples;Min_cycle;Max_cycle;Signal;HPM_P1;HPM_P2
2020/12/18 00:00:45;;;;;;;12.03;10.90;;;10.50;44.90;;;;;;5050623;28;20537;-65
2020/12/18 00:03:10;;;;;;;12.40;10.70;;;10.40;45.00;;;;;;5050572;28;20517;-66
2020/12/18 00:05:42;;;;;;;11.63;10.63;;;10.40;44.80;;;;;;5050528;28;20169;-66
2020/12/18 00:08:09;;;;;;;12.43;11.30;;;10.50;44.80;;;;;;5050329;28;20171;-66
2020/12/18 00:10:34;;;;;;;12.90;11.60;;;10.40;44.90;;;;;;5050328;28;20411;-66
2020/12/18 00:13:00;;;;;;;10.90;9.63;;;10.40;44.80;;;;;;5050291;28;20794;-65
2020/12/18 00:15:27;;;;;;;10.30;9.30;;;10.40;44.80;;;;;;5050315;28;20172;-66
2020/12/18 00:17:52;;;;;;;10.07;9.17;;;10.30;44.90;;;;;;5050242;28;20176;-65
2020/12/18 00:20:18;;;;;;;10.43;9.43;;;10.10;45.50;;;;;;5050216;28;21038;-65
2020/12/18 00:22:44;;;;;;;11.07;10.07;;;10.10;45.50;;;;;;5050028;28;20215;-64
2020/12/18 00:25:10;;;;;;;11.67;10.57;;;10.10;45.60;;;;;;5050271;28;20921;-64
2020/12/18 00:27:39;;;;;;;10.53;9.60;;;10.20;44.80;;;;;;5050092;28;20172;-65
2020/12/18 00:30:06;;;;;;;10.50;9.50;;;10.20;44.80;;;;;;5050247;28;20967;-65
2020/12/18 00:32:31;;;;;;;10.53;9.50;;;9.80;46.20;;;;;;5050192;28;21002;-65
2020/12/18 00:34:56;;;;;;;10.87;9.87;;;9.60;47.50;;;;;;5050140;28;20578;-65
2020/12/18 00:37:22;;;;;;;11.40;9.70;;;9.40;48.40;;;;;;5049225;28;20180;-65
2020/12/18 00:39:47;;;;;;;9.33;8.63;;;9.60;48.40;;;;;;5049168;28;20560;-66
2020/12/18 00:42:13;;;;;;;10.50;9.63;;;9.80;47.40;;;;;;5052228;28;20168;-66
2020/12/18 00:44:38;;;;;;;11.27;10.17;;;10.00;45.80;;;;;;5053769;28;20183;-66
2020/12/18 00:47:04;;;;;;;9.70;8.70;;;10.00;45.60;;;;;;5053463;28;20180;-66
2020/12/18 00:49:29;;;;;;;11.00;10.00;;;10.00;45.80;;;;;;5053696;28;20176;-66
2020/12/18 00:51:55;;;;;;;11.57;10.37;;;9.90;46.70;;;;;;5053684;28;20255;-66
2020/12/18 00:54:20;;;;;;;9.47;8.57;;;9.70;46.80;;;;;;5053525;28;20192;-66
2020/12/18 00:56:46;;;;;;;10.40;9.50;;;9.50;47.70;;;;;;5053558;28;20202;-66
2020/12/18 00:59:11;;;;;;;11.43;10.40;;;9.70;46.80;;;;;;5053403;28;20242;-66
2020/12/18 01:01:37;;;;;;;10.07;9.17;;;9.90;46.00;;;;;;5053500;28;20180;-65
2020/12/18 01:04:04;;;;;;;9.77;8.97;;;9.90;45.70;;;;;;5053458;28;20552;-65
2020/12/18 01:06:30;;;;;;;10.50;9.10;;;9.90;45.50;;;;;;5053426;28;20538;-65
2020/12/18 01:08:55;;;;;;;10.93;9.97;;;9.60;45.80;;;;;;5053102;28;20464;-66
2020/12/18 01:11:21;;;;;;;10.77;9.80;;;9.30;47.20;;;;;;5053237;28;20176;-65
2020/12/18 01:13:46;;;;;;;11.03;10.03;;;9.10;48.60;;;;;;5053182;28;20192;-65
2020/12/18 01:16:12;;;;;;;9.70;8.87;;;9.00;49.30;;;;;;5053172;28;20172;-65
2020/12/18 01:18:39;;;;;;;9.63;8.60;;;9.20;48.70;;;;;;5052982;28;20175;-66
2020/12/18 01:21:04;;;;;;;10.43;9.60;;;9.20;49.10;;;;;;5053038;28;20228;-65
2020/12/18 01:23:30;;;;;;;10.07;9.17;;;9.00;49.30;;;;;;5052780;28;20811;-66
2020/12/18 01:25:56;;;;;;;10.43;9.43;;;8.90;49.80;;;;;;5053013;28;20266;-66
2020/12/18 01:28:21;;;;;;;10.30;9.37;;;9.00;49.50;;;;;;5052840;28;20172;-66
2020/12/18 01:30:47;;;;;;;10.63;9.53;;;9.00;49.90;;;;;;5052925;28;20175;-65
2020/12/18 01:33:13;;;;;;;13.00;9.80;;;8.90;50.00;;;;;;5052848;28;20184;-66
2020/12/18 01:35:38;;;;;;;9.70;8.90;;;9.00;50.10;;;;;;5052863;28;20168;-65
2020/12/18 01:38:04;;;;;;;10.13;9.27;;;9.20;49.70;;;;;;5052590;28;20207;-66
2020/12/18 01:40:29;;;;;;;10.03;9.00;;;9.40;48.10;;;;;;5052695;28;20221;-66
2020/12/18 01:42:55;;;;;;;10.33;9.50;;;9.20;49.50;;;;;;5052902;28;20251;-65
2020/12/18 01:45:21;;;;;;;11.13;9.60;;;9.10;48.50;;;;;;5052787;28;20171;-66
2020/12/18 01:47:46;;;;;;;10.43;9.43;;;9.20;49.70;;;;;;5052399;28;20218;-66
2020/12/18 01:50:12;;;;;;;10.07;9.17;;;9.30;48.80;;;;;;5052510;28;20168;-66
2020/12/18 01:52:38;;;;;;;11.43;9.27;;;9.40;48.40;;;;;;5052015;28;20188;-66
2020/12/18 01:55:07;;;;;;;10.80;9.63;;;9.50;47.90;;;;;;5052689;28;20421;-66
2020/12/18 01:57:33;;;;;;;10.63;9.50;;;9.50;48.00;;;;;;5052297;28;20647;-65
2020/12/18 02:00:06;;;;;;;11.47;9.90;;;9.50;47.70;;;;;;5052223;28;20511;-66
2020/12/18 02:02:32;;;;;;;9.63;8.77;;;9.50;48.20;;;;;;5052298;28;20434;-66
2020/12/18 02:04:57;;;;;;;9.90;8.90;;;9.50;48.20;;;;;;5052225;28;20425;-66
2020/12/18 02:07:26;;;;;;;10.37;9.47;;;9.60;47.90;;;;;;5052079;28;20183;-66
2020/12/18 02:09:52;;;;;;;10.30;9.20;;;9.70;47.70;;;;;;5052146;28;20202;-66
2020/12/18 02:12:19;;;;;;;11.03;9.73;;;9.80;47.00;;;;;;5052030;28;20419;-65
2020/12/18 02:14:49;;;;;;;10.00;9.20;;;9.70;46.60;;;;;;5052059;28;20176;-65
2020/12/18 02:17:15;;;;;;;11.37;8.60;;;9.70;46.30;;;;;;5051807;28;20472;-66
2020/12/18 02:19:51;;;;;;;10.60;9.53;;;9.80;45.70;;;;;;5051917;28;20812;-66
2020/12/18 02:22:18;;;;;;;9.07;8.27;;;9.70;45.90;;;;;;5051694;28;20433;-65
2020/12/18 02:25:03;;;;;;;10.33;9.33;;;9.60;46.00;;;;;;5051905;28;20410;-65
2020/12/18 02:27:30;;;;;;;9.27;8.27;;;9.50;46.20;;;;;;5051641;28;20403;-66
2020/12/18 02:29:55;;;;;;;11.40;9.33;;;9.50;46.80;;;;;;5051753;28;20510;-65
2020/12/18 02:32:21;;;;;;;10.80;8.40;;;9.50;46.30;;;;;;5051627;28;20505;-65
2020/12/18 02:34:47;;;;;;;10.50;9.50;;;9.60;46.40;;;;;;5051831;28;20180;-65
2020/12/18 02:37:12;;;;;;;9.87;9.00;;;9.70;46.10;;;;;;5051491;28;20837;-65
2020/12/18 02:39:38;;;;;;;10.43;9.37;;;9.70;45.80;;;;;;5051571;28;20695;-65
2020/12/18 02:42:04;;;;;;;10.40;9.50;;;9.70;45.70;;;;;;5051566;28;20203;-65
2020/12/18 02:44:30;;;;;;;10.53;9.63;;;9.70;45.80;;;;;;5051466;28;20936;-65
2020/12/18 02:46:55;;;;;;;11.27;10.10;;;9.70;45.70;;;;;;5051461;28;20414;-65
2020/12/18 02:49:22;;;;;;;11.17;9.93;;;9.70;46.10;;;;;;5051457;28;20184;-65
2020/12/18 02:51:47;;;;;;;13.10;10.00;;;9.70;46.10;;;;;;5051828;28;20264;-65
2020/12/18 02:54:13;;;;;;;10.53;9.73;;;9.60;46.20;;;;;;5051570;28;20865;-64
2020/12/18 02:56:39;;;;;;;10.03;9.03;;;9.60;46.40;;;;;;5051608;28;20194;-65
2020/12/18 02:59:05;;;;;;;10.20;9.30;;;9.60;46.50;;;;;;5051243;28;20802;-65
2020/12/18 03:01:31;;;;;;;10.40;8.77;;;9.70;46.20;;;;;;5051284;28;20414;-65
2020/12/18 03:03:56;;;;;;;11.27;10.30;;;9.60;46.00;;;;;;5050481;28;20435;-65
2020/12/18 03:06:22;;;;;;;12.90;11.50;;;9.50;46.10;;;;;;5051256;28;20176;-65
2020/12/18 03:08:47;;;;;;;10.10;9.30;;;9.30;47.00;;;;;;5050961;28;20218;-66
2020/12/18 03:11:14;;;;;;;10.80;9.70;;;9.40;47.00;;;;;;5051143;28;20203;-65
2020/12/18 03:13:39;;;;;;;9.90;9.10;;;9.40;47.00;;;;;;5050952;28;20195;-66
2020/12/18 03:16:05;;;;;;;10.80;9.70;;;9.50;47.10;;;;;;5051062;28;20411;-65
2020/12/18 03:18:30;;;;;;;11.03;9.93;;;9.50;47.10;;;;;;5050867;28;20259;-65
2020/12/18 03:20:56;;;;;;;10.73;9.63;;;9.50;47.10;;;;;;5050837;28;20200;-65
2020/12/18 03:23:21;;;;;;;9.97;9.13;;;9.50;47.10;;;;;;5050768;28;20294;-66
2020/12/18 03:25:47;;;;;;;9.90;9.00;;;9.50;47.10;;;;;;5050985;28;20642;-66
2020/12/18 03:28:12;;;;;;;10.57;9.57;;;9.60;46.50;;;;;;5050710;28;20678;-66
2020/12/18 03:30:38;;;;;;;9.83;8.97;;;9.60;46.50;;;;;;5050798;28;20183;-67
2020/12/18 03:33:04;;;;;;;9.93;9.00;;;9.50;46.20;;;;;;5050730;28;20586;-67
2020/12/18 03:35:30;;;;;;;10.07;9.13;;;9.50;45.80;;;;;;5050801;28;20699;-67
2020/12/18 03:37:55;;;;;;;11.00;10.20;;;9.40;46.10;;;;;;5050521;28;20172;-65
2020/12/18 03:40:21;;;;;;;10.73;9.77;;;9.40;46.40;;;;;;5050610;28;20455;-66
2020/12/18 03:42:46;;;;;;;11.90;10.80;;;9.40;46.30;;;;;;5050564;28;20184;-66
2020/12/18 03:45:12;;;;;;;10.70;9.70;;;9.20;47.10;;;;;;5050590;28;20169;-66
2020/12/18 03:47:38;;;;;;;12.17;10.90;;;9.20;47.00;;;;;;5050508;28;20176;-66
2020/12/18 03:50:06;;;;;;;10.13;9.20;;;9.10;47.80;;;;;;5050701;28;20777;-66
2020/12/18 03:52:31;;;;;;;11.77;10.57;;;9.10;47.90;;;;;;5050665;28;20223;-66
2020/12/18 03:54:57;;;;;;;11.10;10.07;;;9.00;48.80;;;;;;5050713;28;20512;-66
2020/12/18 03:57:23;;;;;;;13.43;10.43;;;9.00;48.20;;;;;;5050372;28;20501;-66
2020/12/18 03:59:48;;;;;;;11.20;10.20;;;9.00;48.30;;;;;;5050402;28;20199;-66
2020/12/18 04:02:14;;;;;;;11.33;10.33;;;8.80;48.80;;;;;;5050492;28;20202;-65
2020/12/18 04:04:39;;;;;;;10.43;9.10;;;8.60;49.60;;;;;;5050569;28;20168;-66
2020/12/18 04:07:05;;;;;;;13.10;10.80;;;8.50;49.80;;;;;;5050236;28;20693;-66
2020/12/18 04:09:30;;;;;;;11.80;10.70;;;8.70;50.10;;;;;;5050475;28;20183;-65
2020/12/18 04:11:56;;;;;;;11.57;10.50;;;8.90;49.40;;;;;;5050445;28;20656;-65
2020/12/18 04:14:21;;;;;;;11.83;10.40;;;9.20;48.40;;;;;;5050285;28;20192;-65
2020/12/18 04:16:47;;;;;;;10.90;9.90;;;9.30;47.60;;;;;;5053668;28;20176;-65
2020/12/18 04:19:12;;;;;;;10.93;9.93;;;9.40;47.00;;;;;;5054101;28;20670;-67
2020/12/18 04:21:38;;;;;;;14.63;10.50;;;9.40;47.00;;;;;;5054543;28;20855;-67
2020/12/18 04:24:04;;;;;;;10.70;9.80;;;9.40;46.70;;;;;;5054227;28;20207;-66
2020/12/18 04:26:29;;;;;;;10.37;9.57;;;9.50;47.10;;;;;;5054415;28;20171;-66
2020/12/18 04:28:55;;;;;;;12.37;9.70;;;9.40;46.80;;;;;;5054128;28;20180;-66
2020/12/18 04:31:20;;;;;;;12.13;10.80;;;9.40;46.70;;;;;;5054107;28;20172;-65
2020/12/18 04:33:46;;;;;;;10.43;9.43;;;9.30;46.90;;;;;;5054215;28;20188;-65
2020/12/18 04:36:12;;;;;;;10.40;8.60;;;9.40;46.90;;;;;;5054088;28;20262;-66
2020/12/18 04:38:37;;;;;;;10.73;9.83;;;9.50;46.50;;;;;;5053795;28;20493;-65
2020/12/18 04:41:04;;;;;;;15.37;10.47;;;9.30;46.90;;;;;;5053778;28;20275;-65
2020/12/18 04:43:29;;;;;;;9.80;8.80;;;9.20;47.10;;;;;;5053734;28;20188;-67
2020/12/18 04:45:58;;;;;;;9.53;8.70;;;9.40;46.80;;;;;;5053858;28;20781;-65
2020/12/18 04:48:28;;;;;;;11.37;10.20;;;9.60;46.30;;;;;;5053561;28;20243;-65
2020/12/18 04:50:55;;;;;;;11.03;9.90;;;9.70;46.10;;;;;;5053702;28;20421;-66
2020/12/18 04:53:33;;;;;;;10.07;9.07;;;9.80;46.10;;;;;;5053555;28;20426;-66
2020/12/18 04:56:08;;;;;;;11.80;10.60;;;9.90;45.50;;;;;;5053516;28;20840;-65
2020/12/18 04:58:36;;;;;;;10.17;9.30;;;9.90;45.60;;;;;;5053507;28;20827;-66
2020/12/18 05:01:02;;;;;;;9.93;9.03;;;9.90;45.30;;;;;;5053407;28;20458;-65
2020/12/18 05:03:32;;;;;;;11.00;9.83;;;9.90;45.40;;;;;;5053367;28;20438;-65
2020/12/18 05:05:59;;;;;;;10.60;9.70;;;10.00;44.40;;;;;;5053421;28;20406;-66
2020/12/18 05:08:26;;;;;;;11.37;10.23;;;10.00;44.30;;;;;;5053095;28;20414;-66
2020/12/18 05:10:51;;;;;;;11.37;10.30;;;10.00;44.30;;;;;;5053132;28;20937;-66
2020/12/18 05:13:19;;;;;;;14.97;11.60;;;9.80;45.40;;;;;;5053253;28;20480;-66
2020/12/18 05:15:44;;;;;;;11.13;10.13;;;9.80;45.90;;;;;;5053245;28;20221;-67
2020/12/18 05:18:11;;;;;;;11.73;10.57;;;9.80;45.70;;;;;;5052981;28;20896;-66
2020/12/18 05:20:37;;;;;;;11.20;10.07;;;9.90;45.40;;;;;;5053065;28;20250;-66
2020/12/18 05:23:09;;;;;;;9.90;9.10;;;9.90;45.10;;;;;;5052747;28;20454;-67
2020/12/18 05:25:37;;;;;;;10.67;9.63;;;9.90;45.30;;;;;;5053030;28;20164;-66
2020/12/18 05:28:04;;;;;;;11.03;9.93;;;9.90;45.40;;;;;;5048476;28;20796;-65
2020/12/18 05:30:29;;;;;;;11.10;10.00;;;10.00;44.00;;;;;;5052568;28;20429;-66
2020/12/18 05:32:56;;;;;;;11.63;10.60;;;10.00;44.00;;;;;;5052354;28;20506;-65
2020/12/18 05:35:22;;;;;;;12.37;11.33;;;10.00;44.10;;;;;;5051918;28;20207;-65
2020/12/18 05:37:51;;;;;;;11.33;10.37;;;10.00;43.60;;;;;;5052091;28;20430;-66
2020/12/18 05:40:17;;;;;;;11.20;10.20;;;10.00;44.10;;;;;;5052175;28;20532;-66
2020/12/18 05:42:47;;;;;;;10.70;9.80;;;10.10;43.50;;;;;;5052182;28;20422;-66
2020/12/18 05:45:17;;;;;;;9.47;8.77;;;10.10;45.20;;;;;;5052285;28;20406;-65
2020/12/18 05:47:58;;;;;;;10.93;10.07;;;10.00;44.10;;;;;;5051888;28;20873;-65
2020/12/18 05:50:43;;;;;;;11.10;10.10;;;10.00;44.30;;;;;;5051867;28;20410;-66
2020/12/18 05:53:11;;;;;;;11.83;9.57;;;9.90;45.20;;;;;;5050154;28;20458;-66
2020/12/18 05:55:39;;;;;;;13.13;10.50;;;9.90;45.40;;;;;;5051843;28;20502;-66
2020/12/18 05:58:04;;;;;;;10.40;9.47;;;9.70;45.60;;;;;;5052019;28;20921;-65
2020/12/18 06:00:31;;;;;;;11.73;10.63;;;9.70;46.00;;;;;;5049977;28;20508;-66
2020/12/18 06:03:00;;;;;;;12.33;9.77;;;9.60;46.40;;;;;;5051218;28;20655;-66
2020/12/18 06:05:26;;;;;;;10.90;9.87;;;9.80;46.30;;;;;;5052122;28;20406;-66
2020/12/18 06:07:53;;;;;;;11.97;10.87;;;9.90;45.80;;;;;;5052045;28;20438;-66
2020/12/18 06:10:23;;;;;;;146.07;124.47;;;9.90;45.40;;;;;;5051865;28;20916;-65
2020/12/18 06:12:58;;;;;;;18.20;15.40;;;9.90;45.10;;;;;;5051969;28;20529;-66
2020/12/18 06:15:25;;;;;;;12.87;11.53;;;9.80;45.10;;;;;;5035444;28;20426;-66
2020/12/18 06:17:52;;;;;;;11.57;10.57;;;9.80;45.70;;;;;;5031784;28;20477;-65
2020/12/18 06:20:19;;;;;;;12.87;11.60;;;9.90;45.40;;;;;;5031883;28;21011;-66
2020/12/18 06:22:59;;;;;;;14.20;12.03;;;9.90;45.30;;;;;;5031647;28;20495;-65
2020/12/18 06:25:24;;;;;;;13.13;11.80;;;9.80;45.30;;;;;;5031719;28;20403;-66
2020/12/18 06:28:01;;;;;;;33.47;29.27;;;9.70;45.40;;;;;;5031567;28;20410;-66
2020/12/18 06:30:28;;;;;;;11.47;10.47;;;9.60;45.80;;;;;;5030683;28;20513;-65
2020/12/18 06:32:54;;;;;;;14.03;12.50;;;9.40;46.10;;;;;;5029799;28;20435;-66
2020/12/18 06:35:33;;;;;;;13.33;12.23;;;9.40;46.60;;;;;;5031246;28;20940;-66
2020/12/18 06:38:14;;;;;;;11.83;10.73;;;9.30;46.40;;;;;;5029903;28;20418;-66
2020/12/18 06:40:41;;;;;;;11.07;10.07;;;9.40;46.80;;;;;;5030949;28;20459;-66
2020/12/18 06:43:07;;;;;;;14.03;12.60;;;9.50;46.70;;;;;;5031461;28;20431;-65
2020/12/18 06:45:32;;;;;;;12.63;11.47;;;9.70;45.80;;;;;;5031080;28;20430;-65
2020/12/18 06:47:58;;;;;;;12.50;11.40;;;9.70;45.50;;;;;;5031208;28;20812;-65
2020/12/18 06:50:33;;;;;;;12.27;11.17;;;9.80;45.10;;;;;;5031145;28;20173;-66
2020/12/18 06:53:05;;;;;;;13.47;12.27;;;9.90;45.20;;;;;;5031072;28;20686;-66
2020/12/18 06:55:30;;;;;;;16.10;11.40;;;9.90;47.40;;;;;;5031627;28;20419;-66
2020/12/18 06:58:17;;;;;;;12.63;11.53;;;9.70;45.70;;;;;;5030859;28;20419;-66
2020/12/18 07:00:50;;;;;;;13.30;12.03;;;9.40;46.90;;;;;;5030692;28;20199;-66
2020/12/18 07:03:45;;;;;;;12.47;11.30;;;9.30;47.20;;;;;;5030972;28;20451;-66
2020/12/18 07:06:11;;;;;;;12.50;11.30;;;9.40;47.00;;;;;;5030962;28;20413;-65
2020/12/18 07:08:39;;;;;;;13.13;11.90;;;9.40;47.00;;;;;;5030512;28;20457;-65
2020/12/18 07:11:11;;;;;;;12.50;11.30;;;9.50;47.10;;;;;;5030964;28;20531;-65
2020/12/18 07:13:39;;;;;;;12.70;11.50;;;9.60;47.10;;;;;;5031076;28;21111;-65
2020/12/18 07:16:09;;;;;;;11.80;10.70;;;9.60;46.40;;;;;;5031179;28;20458;-65
2020/12/18 07:18:37;;;;;;;18.37;12.70;;;9.60;46.20;;;;;;5030849;28;20911;-65
2020/12/18 07:21:09;;;;;;;13.47;12.33;;;9.50;46.80;;;;;;5030947;28;20871;-65
2020/12/18 07:23:38;;;;;;;18.17;11.90;;;9.80;46.20;;;;;;5030813;28;20879;-65
2020/12/18 07:26:05;;;;;;;13.10;11.80;;;9.80;46.20;;;;;;5029593;28;20415;-65
2020/12/18 07:28:32;;;;;;;13.20;12.10;;;9.90;46.10;;;;;;5029810;28;20988;-64
2020/12/18 07:30:59;;;;;;;11.50;10.67;;;10.00;44.70;;;;;;5030027;28;20906;-65
2020/12/18 07:33:25;;;;;;;12.67;11.47;;;10.00;44.50;;;;;;5030372;28;20942;-64
2020/12/18 07:35:53;;;;;;;12.70;11.50;;;10.20;44.20;;;;;;5030665;28;21111;-65
2020/12/18 07:38:33;;;;;;;13.43;11.30;;;10.20;43.70;;;;;;5030458;28;20408;-66
2020/12/18 07:41:02;;;;;;;11.57;9.70;;;10.40;47.90;;;;;;5030705;28;20466;-66
2020/12/18 07:43:29;;;;;;;11.57;10.37;;;10.80;49.10;;;;;;5030670;28;20430;-66
2020/12/18 07:45:57;;;;;;;10.97;9.87;;;11.10;46.50;;;;;;5030681;28;20426;-66
2020/12/18 07:48:27;;;;;;;11.37;10.17;;;11.20;47.80;;;;;;5030460;28;20910;-66
2020/12/18 07:51:04;;;;;;;10.53;9.53;;;11.60;44.70;;;;;;5032382;28;20403;-67
2020/12/18 07:53:32;;;;;;;11.30;10.33;;;11.60;43.10;;;;;;5034745;28;20434;-66
2020/12/18 07:56:15;;;;;;;12.00;10.80;;;11.60;43.10;;;;;;5034863;28;20702;-66
2020/12/18 07:58:44;;;;;;;11.83;10.73;;;11.90;44.20;;;;;;5034731;28;20414;-66
2020/12/18 08:01:12;;;;;;;15.40;11.50;;;12.60;39.90;;;;;;5034633;28;21157;-67
2020/12/18 08:03:42;;;;;;;13.57;10.50;;;12.70;38.60;;;;;;5034544;28;20510;-66
2020/12/18 08:06:22;;;;;;;12.03;10.83;;;12.60;40.30;;;;;;5033319;28;20415;-68
2020/12/18 08:09:19;;;;;;;11.40;10.40;;;12.10;37.90;;;;;;5053924;28;20484;-68
2020/12/18 08:11:45;;;;;;;12.40;11.20;;;11.70;39.10;;;;;;5045407;28;20429;-64
2020/12/18 08:14:12;;;;;;;11.10;10.10;;;11.40;39.80;;;;;;5054167;28;20927;-67
2020/12/18 08:16:38;;;;;;;16.73;14.60;;;11.40;40.20;;;;;;5053894;28;20416;-66
2020/12/18 08:19:06;;;;;;;13.17;11.03;;;11.30;40.10;;;;;;5053944;28;20411;-66
2020/12/18 08:21:42;;;;;;;13.63;10.80;;;11.00;41.20;;;;;;5054248;28;20460;-67
2020/12/18 08:24:27;;;;;;;12.27;10.60;;;10.90;42.20;;;;;;5053928;28;20437;-68
2020/12/18 08:27:04;;;;;;;11.43;10.50;;;10.80;42.30;;;;;;5054080;28;20916;-67
2020/12/18 08:29:31;;;;;;;16.33;12.00;;;10.80;42.30;;;;;;5054102;28;20489;-67
2020/12/18 08:31:58;;;;;;;13.10;11.80;;;10.80;42.30;;;;;;5053871;28;20410;-67
2020/12/18 08:34:29;;;;;;;12.20;10.43;;;10.70;42.70;;;;;;5053584;28;20438;-66
2020/12/18 08:36:56;;;;;;;11.77;10.77;;;10.70;42.80;;;;;;5053597;28;20913;-66
2020/12/18 08:39:22;;;;;;;15.80;11.73;;;10.70;42.80;;;;;;5053357;28;20856;-67
2020/12/18 08:41:52;;;;;;;13.37;9.93;;;10.60;42.90;;;;;;5053520;28;20406;-67
2020/12/18 08:44:27;;;;;;;14.10;11.30;;;10.50;43.40;;;;;;5053722;28;20538;-66
2020/12/18 08:46:53;;;;;;;15.80;10.87;;;10.60;43.60;;;;;;5050149;28;20397;-68
2020/12/18 08:49:21;;;;;;;12.57;11.27;;;10.60;43.60;;;;;;5052820;28;20442;-66
2020/12/18 08:51:52;;;;;;;17.17;11.60;;;10.60;43.50;;;;;;5053406;28;20414;-66
2020/12/18 08:54:34;;;;;;;14.23;11.67;;;10.70;43.50;;;;;;5053355;28;20434;-66
2020/12/18 08:57:26;;;;;;;11.60;10.50;;;10.70;43.30;;;;;;5052929;28;20403;-66
2020/12/18 09:00:00;;;;;;;15.20;10.53;;;10.60;44.10;;;;;;5052913;28;20507;-67
2020/12/18 09:02:29;;;;;;;10.40;9.50;;;10.50;44.70;;;;;;5051650;28;20486;-66
2020/12/18 09:05:23;;;;;;;14.97;10.57;;;10.50;44.80;;;;;;5052739;28;20399;-66
2020/12/18 09:07:51;;;;;;;18.77;11.90;;;10.70;44.80;;;;;;5052019;28;20754;-67
2020/12/18 09:10:34;;;;;;;12.57;11.03;;;10.60;45.10;;;;;;5053168;28;20438;-67
2020/12/18 09:13:16;;;;;;;13.60;10.27;;;10.70;45.30;;;;;;5052747;28;20426;-66
2020/12/18 09:16:02;;;;;;;15.70;10.87;;;10.50;44.70;;;;;;5053095;28;20524;-67
2020/12/18 09:18:33;;;;;;;13.00;11.80;;;10.60;45.30;;;;;;5052598;28;20410;-67
2020/12/18 09:21:10;;;;;;;13.43;12.00;;;10.60;44.80;;;;;;5052679;28;20461;-66
2020/12/18 09:23:36;;;;;;;13.23;11.97;;;10.70;44.80;;;;;;5052631;28;20454;-66
2020/12/18 09:26:02;;;;;;;12.73;10.67;;;10.70;44.50;;;;;;5052824;28;20545;-66
2020/12/18 09:28:38;;;;;;;13.87;11.60;;;10.60;45.00;;;;;;5052320;28;20419;-66
2020/12/18 09:31:06;;;;;;;12.10;9.83;;;10.50;45.50;;;;;;5052519;28;20736;-66
2020/12/18 09:33:33;;;;;;;11.80;10.70;;;10.50;45.90;;;;;;5052649;28;20584;-66
2020/12/18 09:36:09;;;;;;;18.73;11.17;;;10.50;45.60;;;;;;5052156;28;20456;-67
2020/12/18 09:38:46;;;;;;;11.50;10.20;;;10.60;45.60;;;;;;5052264;28;20402;-67
2020/12/18 09:41:18;;;;;;;11.13;10.03;;;10.60;45.30;;;;;;5052279;28;20461;-68
2020/12/18 09:43:44;;;;;;;11.40;10.30;;;10.60;45.00;;;;;;5052025;28;20429;-67
2020/12/18 09:46:13;;;;;;;12.30;11.27;;;10.60;45.30;;;;;;5052297;28;20819;-66
2020/12/18 09:48:40;;;;;;;11.40;10.40;;;10.60;44.90;;;;;;5052155;28;20489;-67
2020/12/18 09:51:05;;;;;;;11.97;10.20;;;10.70;45.60;;;;;;5048623;28;20415;-66
2020/12/18 09:53:31;;;;;;;12.27;11.27;;;10.60;44.70;;;;;;5043454;28;20430;-66
2020/12/18 09:55:57;;;;;;;11.70;10.50;;;10.70;45.30;;;;;;5042110;28;20563;-66
2020/12/18 09:58:22;;;;;;;13.07;11.63;;;10.70;44.70;;;;;;5048479;28;20625;-66
2020/12/18 10:00:48;;;;;;;13.10;11.53;;;10.70;45.10;;;;;;5050670;28;20249;-66
2020/12/18 10:03:14;;;;;;;11.17;10.13;;;10.60;45.70;;;;;;5050810;28;20270;-70
2020/12/18 10:05:40;;;;;;;13.77;12.40;;;10.50;46.30;;;;;;5050417;28;20854;-68
2020/12/18 10:08:06;;;;;;;11.57;10.47;;;10.60;46.30;;;;;;5050434;28;20418;-68
2020/12/18 10:10:31;;;;;;;13.10;11.90;;;10.80;45.80;;;;;;5050551;28;20253;-67
2020/12/18 10:12:58;;;;;;;11.03;10.03;;;10.80;45.80;;;;;;5050335;28;20200;-66
2020/12/18 10:15:25;;;;;;;11.87;10.67;;;11.00;45.20;;;;;;5050448;28;20402;-65
2020/12/18 10:17:50;;;;;;;11.60;10.40;;;11.10;45.10;;;;;;5051122;28;20822;-67
2020/12/18 10:20:16;;;;;;;14.13;11.30;;;11.20;44.70;;;;;;5044244;28;20454;-67
2020/12/18 10:22:42;;;;;;;12.37;10.60;;;11.20;44.30;;;;;;5042411;28;20442;-67
2020/12/18 10:25:07;;;;;;;11.00;10.10;;;11.30;44.60;;;;;;5041659;28;20191;-66
2020/12/18 10:27:34;;;;;;;12.07;10.80;;;11.30;44.70;;;;;;5035024;28;20199;-67
2020/12/18 10:30:00;;;;;;;11.03;9.90;;;11.30;44.00;;;;;;5043116;28;20183;-66
2020/12/18 10:32:27;;;;;;;12.23;10.90;;;11.40;43.80;;;;;;5038644;28;20447;-67
2020/12/18 10:34:53;;;;;;;12.97;10.80;;;11.50;43.70;;;;;;5040344;28;20272;-64
2020/12/18 10:37:18;;;;;;;11.53;9.30;;;11.50;43.30;;;;;;5041012;28;20510;-66
2020/12/18 10:39:44;;;;;;;12.03;10.90;;;11.50;43.50;;;;;;5039082;28;20193;-66
2020/12/18 10:42:09;;;;;;;13.17;11.77;;;11.60;43.60;;;;;;5040547;28;20173;-66
2020/12/18 10:44:36;;;;;;;25.77;23.03;;;11.70;43.60;;;;;;5040725;28;20169;-67
2020/12/18 10:47:03;;;;;;;13.23;12.03;;;11.70;43.80;;;;;;5039019;28;20655;-66
2020/12/18 10:49:28;;;;;;;25.60;20.40;;;11.80;43.20;;;;;;5040590;28;20774;-67
2020/12/18 10:51:54;;;;;;;12.70;11.57;;;11.90;42.70;;;;;;5040370;28;20418;-67
2020/12/18 10:54:19;;;;;;;12.80;11.60;;;11.90;42.40;;;;;;5038925;28;20200;-66
2020/12/18 10:56:47;;;;;;;15.30;13.77;;;11.90;42.40;;;;;;5041208;28;20255;-68
2020/12/18 10:59:13;;;;;;;16.50;15.00;;;12.00;42.10;;;;;;5039945;28;20176;-67
2020/12/18 11:01:39;;;;;;;13.20;12.10;;;12.00;41.70;;;;;;5039038;28;20540;-66
2020/12/18 11:04:05;;;;;;;13.70;12.30;;;12.00;42.10;;;;;;5035282;28;20538;-66
2020/12/18 11:06:32;;;;;;;12.40;11.20;;;12.10;42.00;;;;;;5039610;28;20263;-67
2020/12/18 11:08:58;;;;;;;13.57;12.10;;;12.10;42.00;;;;;;5038711;28;21273;-66
2020/12/18 11:11:24;;;;;;;14.23;12.90;;;12.00;42.20;;;;;;5047593;28;20422;-66
2020/12/18 11:13:50;;;;;;;19.37;12.50;;;12.10;42.00;;;;;;5046080;28;20196;-68
2020/12/18 11:16:17;;;;;;;14.10;11.97;;;12.20;41.40;;;;;;5037671;28;21152;-69
2020/12/18 11:18:43;;;;;;;13.43;11.60;;;12.30;41.40;;;;;;5050530;28;20870;-67
2020/12/18 11:21:09;;;;;;;13.67;12.37;;;12.30;41.40;;;;;;5050741;28;20865;-67
2020/12/18 11:23:35;;;;;;;12.37;11.37;;;12.30;40.80;;;;;;5050588;28;20446;-67
2020/12/18 11:26:02;;;;;;;12.73;11.63;;;12.30;40.80;;;;;;5050244;28;20180;-66
2020/12/18 11:28:27;;;;;;;14.80;13.40;;;12.40;40.80;;;;;;5050701;28;20416;-66
2020/12/18 11:30:53;;;;;;;20.17;12.60;;;12.40;40.90;;;;;;5050865;28;20411;-66
2020/12/18 11:33:19;;;;;;;13.10;12.00;;;12.40;40.50;;;;;;5048291;28;20202;-66
2020/12/18 11:35:45;;;;;;;12.17;11.17;;;12.50;40.40;;;;;;5039754;28;20255;-66
2020/12/18 11:38:10;;;;;;;12.70;11.37;;;12.50;40.40;;;;;;5038182;28;20180;-67
2020/12/18 11:40:36;;;;;;;13.23;12.07;;;12.50;40.20;;;;;;5040366;28;20203;-67
2020/12/18 11:43:01;;;;;;;13.63;12.23;;;12.50;40.50;;;;;;5040950;28;20192;-67
2020/12/18 11:45:27;;;;;;;13.33;12.03;;;12.50;40.40;;;;;;5040052;28;20181;-67
2020/12/18 11:47:52;;;;;;;12.27;11.27;;;12.60;40.20;;;;;;5038113;28;20180;-66
2020/12/18 11:50:18;;;;;;;13.30;11.90;;;12.60;40.00;;;;;;5038045;28;20195;-67
2020/12/18 11:52:44;;;;;;;12.33;11.27;;;12.50;40.20;;;;;;5039172;28;20678;-66
2020/12/18 11:55:09;;;;;;;14.20;12.90;;;12.50;40.30;;;;;;5040200;28;20590;-68
2020/12/18 11:57:35;;;;;;;11.77;10.67;;;12.50;40.40;;;;;;5038034;28;20644;-67
2020/12/18 12:00:00;;;;;;;13.00;11.90;;;12.60;40.50;;;;;;5039278;28;20199;-66
2020/12/18 12:02:26;;;;;;;13.73;12.43;;;12.60;40.30;;;;;;5037520;28;20666;-66
2020/12/18 12:04:51;;;;;;;13.17;11.70;;;12.70;40.40;;;;;;5040289;28;20164;-66
2020/12/18 12:07:17;;;;;;;13.10;12.00;;;12.70;40.40;;;;;;5038177;28;20165;-67
2020/12/18 12:09:42;;;;;;;13.53;11.97;;;12.70;40.20;;;;;;5039172;28;20176;-67
2020/12/18 12:12:11;;;;;;;12.77;11.63;;;12.80;40.40;;;;;;5039738;28;20207;-66
2020/12/18 12:14:37;;;;;;;13.73;12.30;;;12.70;40.20;;;;;;5040274;28;20203;-68
2020/12/18 12:17:03;;;;;;;13.17;10.73;;;12.80;40.20;;;;;;5039168;28;20932;-66
2020/12/18 12:19:30;;;;;;;12.33;11.30;;;12.90;39.90;;;;;;5038046;28;20468;-66
2020/12/18 12:21:56;;;;;;;21.23;15.43;;;12.90;40.00;;;;;;5037436;28;20168;-65
2020/12/18 12:24:22;;;;;;;17.27;15.57;;;12.90;40.20;;;;;;5038664;28;20473;-66
2020/12/18 12:26:48;;;;;;;14.47;12.93;;;13.00;40.20;;;;;;5050409;28;20824;-67
2020/12/18 12:29:14;;;;;;;12.03;11.03;;;13.00;40.20;;;;;;5050109;28;20176;-66
2020/12/18 12:31:39;;;;;;;11.60;10.30;;;13.10;40.10;;;;;;5050237;28;20432;-66
2020/12/18 12:34:05;;;;;;;15.23;13.13;;;13.10;39.90;;;;;;5050091;28;20207;-66
2020/12/18 12:36:30;;;;;;;12.17;11.07;;;13.20;40.20;;;;;;5051058;28;20542;-66
2020/12/18 12:38:56;;;;;;;27.20;24.53;;;13.20;39.60;;;;;;5053483;28;20206;-67